x

Long Key, Fl (lonf1) Weather Station

8:00am - Tue 24th May 2016 All times are CDT. -4 hours from GMT.

  • Wind
    6mph
  • Sea Temp 85°f
  • Air Temp 82°f
  • Sea Pressure 1017.3mb
  • Long Key, Fl
  • Long Key, Fl

More Historic Weather Station data

Upgrade to MSW Pro to gain access to the past 30 days of data for over 8000 Wavebouys and Weather Stations around the globe.

Join Pro

Comparision Forecast

View Surf forecast
   
Tue 05/24 8:00am 6
mph
1017.3mb 85f 82f
7:00am 6 7 mph 1016.7mb 85f 82f
6:00am 6
mph
1016.1mb 85f 82f
5:00am 5 6 mph 1015.9mb 85f 82f
4:00am 3
mph
1015.7mb 85f 82f
3:00am 5 6 mph 1016.1mb 85f 82f
2:00am 5 6 mph 1016.7mb 85f 82f
1:00am  -  1 mph 1017.1mb 86f 82f
12:00am 2 3 mph 1016.6mb 86f 82f
Mon 05/23 11:00pm 5 6 mph 1016.4mb 86f 82f
10:00pm 6 7 mph 1016.2mb 86f 81f
9:00pm 6 7 mph 1015.4mb 86f 82f
8:00pm 3 5 mph 1014.9mb 86f 83f
7:00pm 6
mph
1014.1mb 86f 83f
6:00pm 5 7 mph 1014.1mb 86f 83f
5:00pm 3 5 mph 1013.8mb 86f 83f
4:00pm 2 3 mph 1014mb 86f 82f
3:00pm 5 6 mph 1015mb 86f 82f
2:00pm 5 7 mph 1015.3mb 86f 82f
1:00pm 5
mph
1015.3mb 86f 82f
12:00pm 5 6 mph 1015.2mb 86f 82f
11:00am 8 9 mph 1014.9mb 85f 81f
10:00am 3 5 mph 1014.9mb 85f 81f
9:00am 6 7 mph 1014.5mb 85f 80f
8:00am 3 5 mph 1014.4mb 85f 80f
7:00am 6 8 mph 1013.9mb 85f 80f
6:00am 10 11 mph 1013.3mb 85f 81f
5:00am 9 10 mph 1013.2mb 85f 81f
4:00am 8 9 mph 1012.8mb 86f 81f
3:00am 11 13 mph 1013.4mb 86f 81f
2:00am 13 15 mph 1013.9mb 87f 82f
1:00am 13 15 mph 1014.5mb 87f 82f
12:00am 14 16 mph 1014.7mb 87f 82f
Sun 05/22 11:00pm 15 17 mph 1014.3mb 87f 82f
10:00pm 13 15 mph 1013.4mb 87f 82f
9:00pm 15 16 mph 1013.3mb 87f 82f
8:00pm 14 15 mph 1012.5mb 88f 82f
7:00pm 13 14 mph 1012.8mb 88f 83f
6:00pm 10 11 mph 1012.6mb 88f 83f
5:00pm 9 13 mph 1012.7mb 88f 82f
4:00pm 8 10 mph 1013.3mb 88f 82f
3:00pm 9 11 mph 1013.7mb 88f 82f
2:00pm 8 10 mph 1014.1mb 88f 82f
1:00pm 6 8 mph 1014.7mb 87f 82f
12:00pm 7 8 mph 1014.9mb 87f 82f
11:00am 9 11 mph 1015.1mb 86f 82f
10:00am 8 10 mph 1015.2mb 86f 82f
9:00am 10 11 mph 1015.2mb 85f 82f
8:00am 8 10 mph 1014.9mb 85f 82f
7:00am 8 10 mph 1014.3mb 85f 82f
6:00am 8 9 mph 1013.8mb 85f 82f
5:00am 5 6 mph 1014.1mb 86f 82f
4:00am 6 8 mph 1014.2mb 86f 82f
3:00am 6 8 mph 1014.7mb 86f 83f
2:00am 11 13 mph 1015mb 87f 82f
1:00am 13 15 mph 1015.7mb 87f 83f
12:00am 10
mph
1016.3mb 87f 83f
Sat 05/21 11:00pm 9 11 mph 1016.5mb 87f 83f
10:00pm 8 13 mph 1016.3mb 87f 84f
9:00pm 13 14 mph 1016mb 87f 84f
8:00pm 7 9 mph 1015.8mb 87f 84f
7:00pm 3 5 mph 1015.5mb 87f 84f
6:00pm 6 7 mph 1015.3mb 87f 85f
5:00pm 1 2 mph 1015.3mb 87f 85f
4:00pm 1 2 mph 1016mb 87f 84f
3:00pm 6
mph
1016.6mb 87f 84f
2:00pm 3 5 mph 1017.4mb 87f 84f
1:00pm 3 6 mph 1017.7mb 86f 84f
12:00pm 7 8 mph 1017.9mb 86f 83f
11:00am 6 7 mph 1017.9mb 85f 83f
10:00am 6 7 mph 1017.6mb 85f 82f
9:00am 5 8 mph 1017.8mb 84f 82f
8:00am 5
mph
1017.6mb 84f 83f
7:00am 7
mph
1017.5mb 84f 81f
6:00am 7 8 mph 1017.1mb 85f 81f
5:00am 8 9 mph 1017.2mb 85f 82f
4:00am 6 8 mph 1017.3mb 85f 82f
3:00am 8 10 mph 1017.3mb 85f 82f
2:00am 7 8 mph 1017.6mb 85f 82f
1:00am 8 10 mph 1018mb 85f 82f
12:00am 9 11 mph 1018.4mb 85f 82f
Fri 05/20 11:00pm 8 9 mph 1018.5mb 85f 83f
10:00pm 9 10 mph 1018.5mb 85f 83f
9:00pm 8 9 mph 1018.1mb 86f 83f
8:00pm 8 9 mph 1017.7mb 86f 82f
7:00pm 2 3 mph 1017.2mb 86f 84f
6:00pm 6 7 mph 1016.9mb 86f 84f
5:00pm 10 13 mph 1016.1mb 86f 83f
4:00pm 1 7 mph 1016.9mb 85f 84f
3:00pm 6 8 mph 1017.7mb 85f 83f
2:00pm 8 10 mph 1017.9mb 85f 83f